createdAt,value
2018-07-26T00:02:59.677Z,7.43
2018-07-26T00:08:03.807Z,7.37
2018-07-26T00:13:07.967Z,7.70
2018-07-26T00:18:12.043Z,7.73
2018-07-26T00:23:16.097Z,7.27
2018-07-26T00:28:20.190Z,7.67
2018-07-26T00:33:24.299Z,7.80
2018-07-26T00:38:28.114Z,7.60
2018-07-26T00:43:32.175Z,7.30
2018-07-26T00:48:36.021Z,7.20
2018-07-26T00:53:40.091Z,7.57
2018-07-26T00:58:44.438Z,7.63
2018-07-26T01:03:48.543Z,7.70
2018-07-26T01:08:52.631Z,7.60
2018-07-26T01:13:56.472Z,7.47
2018-07-26T01:19:00.529Z,7.40
2018-07-26T01:24:04.337Z,7.17
2018-07-26T01:29:08.393Z,7.10
2018-07-26T01:34:12.210Z,7.13
2018-07-26T01:39:16.284Z,7.13
2018-07-26T01:44:23.443Z,7.20
2018-07-26T01:49:27.500Z,7.10
2018-07-26T01:54:31.578Z,7.03
2018-07-26T01:59:35.668Z,7.27
2018-07-26T02:04:39.477Z,7.27
2018-07-26T02:09:43.547Z,7.20
2018-07-26T02:14:47.619Z,6.90
2018-07-26T02:19:51.722Z,7.60
2018-07-26T02:24:55.770Z,7.37
2018-07-26T02:29:59.588Z,6.90
2018-07-26T02:35:03.632Z,7.33
2018-07-26T02:40:07.486Z,7.20
2018-07-26T02:45:11.305Z,7.33
2018-07-26T02:50:15.379Z,7.13
2018-07-26T02:55:19.431Z,7.40
2018-07-26T03:00:23.524Z,7.70
2018-07-26T03:05:27.567Z,7.40
2018-07-26T03:10:31.615Z,7.43
2018-07-26T03:15:35.723Z,7.00
2018-07-26T03:20:39.800Z,7.53
2018-07-26T03:25:44.119Z,6.90
2018-07-26T03:30:48.186Z,6.47
2018-07-26T03:35:52.010Z,6.80
2018-07-26T03:40:56.062Z,6.97
2018-07-26T03:46:00.119Z,6.53
2018-07-26T03:51:04.176Z,6.67
2018-07-26T03:56:08.042Z,6.53
2018-07-26T04:01:11.846Z,7.03
2018-07-26T04:06:15.913Z,6.73
2018-07-26T04:11:20.050Z,6.85
2018-07-26T04:16:24.085Z,7.17
2018-07-26T04:21:28.133Z,7.27
2018-07-26T04:26:32.208Z,6.47
2018-07-26T04:31:36.248Z,7.00
2018-07-26T04:36:40.312Z,7.03
2018-07-26T04:41:44.117Z,7.70
2018-07-26T04:46:48.183Z,7.07
2018-07-26T04:51:52.248Z,6.83
2018-07-26T04:56:56.300Z,7.10
2018-07-26T05:02:00.358Z,6.40
2018-07-26T05:07:04.413Z,5.93
2018-07-26T05:12:08.506Z,6.10
2018-07-26T05:17:12.526Z,6.67
2018-07-26T05:22:16.557Z,7.07
2018-07-26T05:27:20.385Z,6.07
2018-07-26T05:32:24.490Z,6.20
2018-07-26T05:37:28.588Z,5.63
2018-07-26T05:42:32.617Z,5.93
2018-07-26T05:47:42.885Z,5.53
2018-07-26T05:52:46.921Z,5.33
2018-07-26T05:57:50.733Z,5.40
2018-07-26T06:02:54.803Z,4.97
2018-07-26T06:07:58.861Z,4.87
2018-07-26T06:13:02.690Z,4.93
2018-07-26T06:18:06.583Z,4.10
2018-07-26T06:23:10.602Z,4.00
2018-07-26T06:28:14.646Z,3.90
2018-07-26T06:33:18.716Z,4.03
2018-07-26T06:38:22.893Z,3.58
2018-07-26T06:43:26.931Z,3.75
2018-07-26T06:48:31.086Z,3.67
2018-07-26T06:53:34.934Z,3.60
2018-07-26T06:58:38.993Z,3.47
2018-07-26T07:03:42.809Z,3.70
2018-07-26T07:08:46.870Z,4.05
2018-07-26T07:13:50.939Z,3.40
2018-07-26T07:18:54.789Z,3.47
2018-07-26T07:23:58.625Z,3.05
2018-07-26T07:29:02.473Z,3.00
2018-07-26T07:34:06.998Z,3.15
2018-07-26T07:39:12.827Z,3.10
2018-07-26T07:44:17.674Z,3.17
2018-07-26T07:49:21.818Z,3.40
2018-07-26T07:54:25.862Z,3.02
2018-07-26T07:59:29.915Z,3.30
2018-07-26T08:04:33.729Z,3.33
2018-07-26T08:09:37.807Z,3.10
2018-07-26T08:14:41.866Z,2.60
2018-07-26T08:19:45.909Z,2.60
2018-07-26T08:24:49.965Z,2.70
2018-07-26T08:29:54.029Z,2.90
2018-07-26T08:34:58.709Z,2.72
2018-07-26T08:40:02.826Z,2.77
2018-07-26T08:45:06.891Z,2.90
2018-07-26T08:50:10.944Z,3.27
2018-07-26T08:55:15.007Z,3.30
2018-07-26T09:00:19.541Z,3.00
2018-07-26T09:05:23.589Z,3.10
2018-07-26T09:10:27.498Z,2.95
2018-07-26T09:15:31.337Z,3.25
2018-07-26T09:20:35.382Z,3.80
2018-07-26T09:25:39.454Z,3.00
2018-07-26T09:30:43.281Z,3.20
2018-07-26T09:35:47.386Z,2.95
2018-07-26T09:40:51.134Z,2.65
2018-07-26T09:45:55.224Z,3.08
2018-07-26T09:50:59.258Z,2.70
2018-07-26T09:56:03.073Z,2.77
2018-07-26T10:01:12.637Z,2.75
2018-07-26T10:06:16.693Z,2.80
2018-07-26T10:11:20.517Z,2.60
2018-07-26T10:16:25.030Z,2.73
2018-07-26T10:21:29.082Z,2.90
2018-07-26T10:26:33.118Z,2.80
2018-07-26T10:31:37.153Z,2.80
2018-07-26T10:36:41.242Z,2.77
2018-07-26T10:41:45.382Z,2.98
2018-07-26T10:46:49.417Z,2.75
2018-07-26T10:51:53.231Z,2.90
2018-07-26T10:56:57.830Z,2.80
2018-07-26T11:02:01.641Z,2.95
2018-07-26T11:07:05.755Z,2.72
2018-07-26T11:12:09.585Z,2.37
2018-07-26T11:17:13.385Z,2.70
2018-07-26T11:22:17.426Z,3.10
2018-07-26T11:27:21.249Z,2.58
2018-07-26T11:32:25.148Z,2.30
2018-07-26T11:37:28.877Z,2.70
2018-07-26T11:42:33.198Z,2.83
2018-07-26T11:47:37.737Z,2.72
2018-07-26T11:52:41.571Z,2.80
2018-07-26T11:57:45.585Z,2.67
2018-07-26T12:02:49.418Z,2.70
2018-07-26T12:07:53.269Z,2.85
2018-07-26T12:12:57.343Z,2.95
2018-07-26T12:18:01.390Z,3.10
2018-07-26T12:23:05.445Z,2.85
2018-07-26T12:28:09.229Z,2.70
2018-07-26T12:33:13.278Z,2.83
2018-07-26T12:38:17.318Z,3.02
2018-07-26T12:43:21.360Z,2.92
2018-07-26T12:48:25.176Z,2.90
2018-07-26T12:53:29.221Z,2.65
2018-07-26T12:58:33.290Z,3.12
2018-07-26T13:03:37.322Z,2.80
2018-07-26T13:08:41.403Z,2.50
2018-07-26T13:13:45.745Z,2.30
2018-07-26T13:18:49.766Z,2.67
2018-07-26T13:23:53.810Z,2.80
2018-07-26T13:28:57.869Z,2.75
2018-07-26T13:34:01.903Z,2.40
2018-07-26T13:39:11.514Z,2.20
2018-07-26T13:44:15.637Z,2.50
2018-07-26T13:49:19.666Z,2.52
2018-07-26T13:54:23.730Z,2.83
2018-07-26T13:59:27.795Z,2.98
2018-07-26T14:04:31.881Z,2.47
2018-07-26T14:09:35.704Z,2.52
2018-07-26T14:14:39.805Z,2.92
2018-07-26T14:19:43.840Z,2.40
2018-07-26T14:24:47.878Z,2.27
2018-07-26T14:29:51.906Z,2.20
2018-07-26T14:34:55.982Z,2.05
2018-07-26T14:40:00.019Z,2.20
2018-07-26T14:45:04.378Z,2.00
2018-07-26T14:50:08.421Z,2.27
2018-07-26T14:55:12.237Z,2.30
2018-07-26T15:00:16.059Z,2.33
2018-07-26T15:05:20.120Z,2.30
2018-07-26T15:10:24.078Z,2.02
2018-07-26T15:15:27.902Z,2.20
2018-07-26T15:20:31.756Z,2.00
2018-07-26T15:25:35.560Z,2.12
2018-07-26T15:30:39.610Z,1.98
2018-07-26T15:35:43.663Z,2.12
2018-07-26T15:40:47.805Z,2.10
2018-07-26T15:45:51.872Z,1.80
2018-07-26T15:50:55.927Z,2.05
2018-07-26T15:55:59.986Z,2.00
2018-07-26T16:01:04.008Z,1.70
2018-07-26T16:06:08.064Z,1.90
2018-07-26T16:11:12.154Z,1.90
2018-07-26T16:16:16.246Z,2.00
2018-07-26T16:21:20.571Z,1.80
2018-07-26T16:26:24.612Z,1.80
2018-07-26T16:31:28.648Z,1.80
2018-07-26T16:36:32.782Z,1.60
2018-07-26T16:41:36.882Z,1.90
2018-07-26T16:46:40.688Z,2.00
2018-07-26T16:51:44.534Z,1.55
2018-07-26T16:56:48.581Z,1.90
2018-07-26T17:01:52.407Z,1.85
2018-07-26T17:06:56.479Z,1.62
2018-07-26T17:12:00.286Z,1.80
2018-07-26T17:17:04.383Z,2.80
2018-07-26T17:22:08.269Z,2.80
2018-07-26T17:27:12.115Z,2.77
2018-07-26T17:32:16.164Z,2.72
2018-07-26T17:37:21.183Z,3.00
2018-07-26T17:42:25.018Z,3.10
2018-07-26T17:47:29.069Z,2.95
2018-07-26T17:52:33.230Z,2.60
2018-07-26T17:57:37.040Z,3.00
2018-07-26T18:02:41.174Z,3.05
2018-07-26T18:07:45.220Z,2.92
2018-07-26T18:12:49.278Z,2.77
2018-07-26T18:17:53.418Z,3.00
2018-07-26T18:22:57.478Z,2.83
2018-07-26T18:28:01.566Z,3.00
2018-07-26T18:33:06.460Z,2.90
2018-07-26T18:38:10.606Z,3.02
2018-07-26T18:43:14.587Z,3.17
2018-07-26T18:48:18.392Z,3.40
2018-07-26T18:53:22.471Z,3.42
2018-07-26T18:58:26.539Z,3.45
2018-07-26T19:03:30.581Z,3.30
2018-07-26T19:08:34.648Z,3.10
2018-07-26T19:13:38.705Z,3.45
2018-07-26T19:18:42.794Z,3.70
2018-07-26T19:23:46.848Z,3.12
2018-07-26T19:28:50.726Z,3.58
2018-07-26T19:33:54.565Z,3.00
2018-07-26T19:38:58.614Z,3.27
2018-07-26T19:44:02.472Z,3.30
2018-07-26T19:54:40.880Z,3.40
2018-07-26T19:59:44.685Z,3.12
2018-07-26T20:04:48.734Z,3.90
2018-07-26T20:09:52.593Z,3.37
2018-07-26T20:14:56.443Z,3.27
2018-07-26T20:20:00.253Z,3.30
2018-07-26T20:25:04.346Z,3.13
2018-07-26T20:30:08.983Z,3.17
2018-07-26T20:35:13.045Z,3.60
2018-07-26T20:40:16.865Z,3.50
2018-07-26T20:45:20.925Z,3.77
2018-07-26T20:50:24.873Z,3.60
2018-07-26T20:55:28.907Z,3.77
2018-07-26T21:00:32.849Z,3.70
2018-07-26T21:05:36.897Z,3.80
2018-07-26T21:10:41.002Z,3.70
2018-07-26T21:15:45.058Z,3.33
2018-07-26T21:20:49.112Z,4.00
2018-07-26T21:25:53.169Z,3.87
2018-07-26T21:30:57.254Z,4.60
2018-07-26T21:36:01.314Z,3.90
2018-07-26T21:41:05.400Z,3.83
2018-07-26T21:46:09.232Z,3.97
2018-07-26T21:51:13.278Z,4.00
2018-07-26T21:56:17.094Z,4.80
2018-07-26T22:01:20.929Z,4.20
2018-07-26T22:06:25.137Z,4.53
2018-07-26T22:11:29.200Z,4.33
2018-07-26T22:16:33.307Z,4.10
2018-07-26T22:21:37.374Z,4.10
2018-07-26T22:26:41.442Z,4.10
2018-07-26T22:31:45.253Z,4.20
2018-07-26T22:36:49.308Z,3.90
2018-07-26T22:41:53.365Z,3.77
2018-07-26T22:46:57.422Z,4.33
2018-07-26T22:52:01.478Z,4.40
2018-07-26T22:57:05.675Z,4.10
2018-07-26T23:02:09.827Z,3.90
2018-07-26T23:07:13.882Z,3.90
2018-07-26T23:12:18.012Z,4.10
2018-07-26T23:17:22.363Z,3.90
2018-07-26T23:22:26.662Z,3.70
2018-07-26T23:27:30.825Z,3.77
2018-07-26T23:32:35.052Z,3.53
2018-07-26T23:37:39.102Z,3.80
2018-07-26T23:42:43.276Z,3.70
2018-07-26T23:47:47.403Z,3.57
2018-07-26T23:52:51.498Z,3.73
2018-07-26T23:57:55.546Z,3.50
